sensor_id;sensor_type;location;lat;lon;timestamp;pressure;altitude;pressure_sealevel;temperature;humidity
77871;BME280;67067;46.850;7.578;2023-05-16T00:00:15;94983.72;;;8.98;57.83
77871;BME280;67067;46.850;7.578;2023-05-16T00:01:17;94989.81;;;8.98;58.07
77871;BME280;67067;46.850;7.578;2023-05-16T00:02:18;94979.53;;;9.02;57.65
77871;BME280;67067;46.850;7.578;2023-05-16T00:03:20;94984.16;;;8.89;57.89
77871;BME280;67067;46.850;7.578;2023-05-16T00:04:22;94984.28;;;9.00;57.80
77871;BME280;67067;46.850;7.578;2023-05-16T00:05:24;94987.22;;;9.03;57.83
77871;BME280;67067;46.850;7.578;2023-05-16T00:06:26;94984.59;;;9.03;57.70
77871;BME280;67067;46.850;7.578;2023-05-16T00:07:27;94979.69;;;8.90;57.84
77871;BME280;67067;46.850;7.578;2023-05-16T00:08:29;94986.97;;;9.05;57.76
77871;BME280;67067;46.850;7.578;2023-05-16T00:09:31;94978.00;;;9.06;57.84
77871;BME280;67067;46.850;7.578;2023-05-16T00:10:33;94979.59;;;9.07;57.83
77871;BME280;67067;46.850;7.578;2023-05-16T00:11:34;94983.16;;;8.96;58.16
77871;BME280;67067;46.850;7.578;2023-05-16T00:12:37;94978.81;;;9.06;57.99
77871;BME280;67067;46.850;7.578;2023-05-16T00:13:40;94980.97;;;9.10;57.75
77871;BME280;67067;46.850;7.578;2023-05-16T00:14:42;94982.56;;;9.11;57.79
77871;BME280;67067;46.850;7.578;2023-05-16T00:15:44;94978.44;;;8.98;58.21
77871;BME280;67067;46.850;7.578;2023-05-16T00:16:46;94979.38;;;9.08;58.00
77871;BME280;67067;46.850;7.578;2023-05-16T00:17:48;94981.50;;;9.12;58.03
77871;BME280;67067;46.850;7.578;2023-05-16T00:18:50;94981.28;;;9.13;58.09
77871;BME280;67067;46.850;7.578;2023-05-16T00:19:55;94975.19;;;9.13;58.07
77871;BME280;67067;46.850;7.578;2023-05-16T00:20:59;94977.59;;;9.14;58.04
77871;BME280;67067;46.850;7.578;2023-05-16T00:22:00;94977.81;;;9.13;58.18
77871;BME280;67067;46.850;7.578;2023-05-16T00:23:04;94981.56;;;9.17;58.03
77871;BME280;67067;46.850;7.578;2023-05-16T00:24:06;94979.97;;;9.16;58.14
77871;BME280;67067;46.850;7.578;2023-05-16T00:25:08;94976.78;;;9.14;58.23
77871;BME280;67067;46.850;7.578;2023-05-16T00:26:12;94977.81;;;9.13;58.08
77871;BME280;67067;46.850;7.578;2023-05-16T00:27:17;94978.09;;;9.11;57.99
77871;BME280;67067;46.850;7.578;2023-05-16T00:28:25;94977.53;;;9.09;58.16
77871;BME280;67067;46.850;7.578;2023-05-16T00:29:27;94982.50;;;9.05;58.26
77871;BME280;67067;46.850;7.578;2023-05-16T00:30:28;94984.97;;;8.90;58.57
77871;BME280;67067;46.850;7.578;2023-05-16T00:31:32;94974.75;;;8.99;58.44
77871;BME280;67067;46.850;7.578;2023-05-16T00:32:35;94974.56;;;9.05;58.02
77871;BME280;67067;46.850;7.578;2023-05-16T00:33:37;94973.53;;;9.06;58.29
77871;BME280;67067;46.850;7.578;2023-05-16T00:34:38;94972.97;;;9.04;58.16
77871;BME280;67067;46.850;7.578;2023-05-16T00:35:40;94970.88;;;9.06;58.07
77871;BME280;67067;46.850;7.578;2023-05-16T00:36:44;94972.50;;;9.07;57.91
77871;BME280;67067;46.850;7.578;2023-05-16T00:37:46;94970.88;;;9.06;57.96
77871;BME280;67067;46.850;7.578;2023-05-16T00:38:48;94978.16;;;8.94;58.45
77871;BME280;67067;46.850;7.578;2023-05-16T00:39:49;94974.81;;;9.04;58.09
77871;BME280;67067;46.850;7.578;2023-05-16T00:40:52;94972.00;;;9.11;58.12
77871;BME280;67067;46.850;7.578;2023-05-16T00:41:54;94976.56;;;8.93;58.08
77871;BME280;67067;46.850;7.578;2023-05-16T00:42:57;94975.84;;;9.03;58.14
77871;BME280;67067;46.850;7.578;2023-05-16T00:44:05;94964.25;;;9.04;57.93
77871;BME280;67067;46.850;7.578;2023-05-16T00:45:07;94966.88;;;9.04;57.77
77871;BME280;67067;46.850;7.578;2023-05-16T00:46:09;94960.28;;;9.01;57.83
77871;BME280;67067;46.850;7.578;2023-05-16T00:47:11;94962.25;;;8.89;58.23
77871;BME280;67067;46.850;7.578;2023-05-16T00:48:13;94966.06;;;8.98;57.90
77871;BME280;67067;46.850;7.578;2023-05-16T00:49:18;94971.38;;;9.03;57.94
77871;BME280;67067;46.850;7.578;2023-05-16T00:50:20;94966.72;;;8.88;58.35
77871;BME280;67067;46.850;7.578;2023-05-16T00:51:23;94966.59;;;9.00;58.16
77871;BME280;67067;46.850;7.578;2023-05-16T00:52:25;94962.09;;;9.01;57.92
77871;BME280;67067;46.850;7.578;2023-05-16T00:53:26;94964.91;;;8.89;58.35
77871;BME280;67067;46.850;7.578;2023-05-16T00:54:29;94956.03;;;9.00;58.12
77871;BME280;67067;46.850;7.578;2023-05-16T00:55:31;94957.63;;;9.01;58.32
77871;BME280;67067;46.850;7.578;2023-05-16T00:56:34;94953.94;;;9.02;58.14
77871;BME280;67067;46.850;7.578;2023-05-16T00:57:37;94955.56;;;9.03;58.18
77871;BME280;67067;46.850;7.578;2023-05-16T00:58:43;94961.31;;;9.00;58.12
77871;BME280;67067;46.850;7.578;2023-05-16T00:59:45;94962.09;;;9.01;58.18
77871;BME280;67067;46.850;7.578;2023-05-16T01:00:47;94959.47;;;9.01;57.92
77871;BME280;67067;46.850;7.578;2023-05-16T01:01:50;94965.06;;;9.04;57.85
77871;BME280;67067;46.850;7.578;2023-05-16T01:02:52;94959.22;;;9.02;58.12
77871;BME280;67067;46.850;7.578;2023-05-16T01:03:54;94964.41;;;8.92;58.30
77871;BME280;67067;46.850;7.578;2023-05-16T01:04:57;94958.69;;;9.00;58.10
77871;BME280;67067;46.850;7.578;2023-05-16T01:05:58;94960.28;;;9.01;57.96
77871;BME280;67067;46.850;7.578;2023-05-16T01:07:01;94953.94;;;9.02;57.92
77871;BME280;67067;46.850;7.578;2023-05-16T01:08:03;94956.66;;;9.07;58.06
77871;BME280;67067;46.850;7.578;2023-05-16T01:09:05;94958.47;;;9.07;57.86
77871;BME280;67067;46.850;7.578;2023-05-16T01:10:15;94953.78;;;9.09;58.06
77871;BME280;67067;46.850;7.578;2023-05-16T01:12:51;94948.13;;;9.00;58.23
77871;BME280;67067;46.850;7.578;2023-05-16T01:14:11;94949.72;;;9.01;58.17
77871;BME280;67067;46.850;7.578;2023-05-16T01:17:07;94947.59;;;8.98;58.46
77871;BME280;67067;46.850;7.578;2023-05-16T01:18:28;94941.00;;;9.01;58.24
77871;BME280;67067;46.850;7.578;2023-05-16T01:20:55;94946.75;;;8.98;58.24
77871;BME280;67067;46.850;7.578;2023-05-16T01:25:05;94941.97;;;8.94;58.43
77871;BME280;67067;46.850;7.578;2023-05-16T01:26:14;94941.81;;;9.01;58.12
77871;BME280;67067;46.850;7.578;2023-05-16T01:27:17;94942.91;;;9.05;58.25
77871;BME280;67067;46.850;7.578;2023-05-16T01:28:20;94942.91;;;9.05;58.06
77871;BME280;67067;46.850;7.578;2023-05-16T01:29:24;94942.09;;;9.05;58.26
77871;BME280;67067;46.850;7.578;2023-05-16T01:30:26;94944.50;;;9.06;58.29
77871;BME280;67067;46.850;7.578;2023-05-16T01:31:30;94943.44;;;9.07;58.09
77871;BME280;67067;46.850;7.578;2023-05-16T01:32:32;94943.22;;;9.09;58.22
77871;BME280;67067;46.850;7.578;2023-05-16T01:33:38;94938.72;;;9.10;58.07
77871;BME280;67067;46.850;7.578;2023-05-16T01:34:40;94947.03;;;8.96;58.60
77871;BME280;67067;46.850;7.578;2023-05-16T01:35:49;94943.13;;;9.04;58.43
77871;BME280;67067;46.850;7.578;2023-05-16T01:38:05;94943.22;;;9.09;58.11
77871;BME280;67067;46.850;7.578;2023-05-16T01:40:47;94938.91;;;9.03;58.39
77871;BME280;67067;46.850;7.578;2023-05-16T01:42:02;94938.63;;;8.99;58.11
77871;BME280;67067;46.850;7.578;2023-05-16T01:43:10;94930.69;;;8.99;58.17
77871;BME280;67067;46.850;7.578;2023-05-16T01:45:30;94945.50;;;9.00;58.11
77871;BME280;67067;46.850;7.578;2023-05-16T01:46:37;94939.72;;;9.03;58.43
77871;BME280;67067;46.850;7.578;2023-05-16T01:47:44;94939.22;;;9.06;58.12
77871;BME280;67067;46.850;7.578;2023-05-16T01:49:00;94932.34;;;9.05;58.28
77871;BME280;67067;46.850;7.578;2023-05-16T01:50:20;94936.53;;;9.01;58.31
77871;BME280;67067;46.850;7.578;2023-05-16T01:51:27;94943.69;;;9.06;58.29
77871;BME280;67067;46.850;7.578;2023-05-16T01:52:41;94938.66;;;9.04;58.29
77871;BME280;67067;46.850;7.578;2023-05-16T01:53:46;94940.81;;;9.07;58.47
77871;BME280;67067;46.850;7.578;2023-05-16T01:54:52;94940.31;;;9.11;58.53
77871;BME280;67067;46.850;7.578;2023-05-16T01:55:59;94935.03;;;9.11;58.62
77871;BME280;67067;46.850;7.578;2023-05-16T01:57:03;94935.34;;;9.14;58.54
77871;BME280;67067;46.850;7.578;2023-05-16T01:58:06;94933.47;;;9.15;58.56
77871;BME280;67067;46.850;7.578;2023-05-16T01:59:09;94931.09;;;9.13;58.47
77871;BME280;67067;46.850;7.578;2023-05-16T02:00:12;94934.53;;;9.14;58.38
77871;BME280;67067;46.850;7.578;2023-05-16T02:01:17;94939.25;;;9.12;58.65
77871;BME280;67067;46.850;7.578;2023-05-16T02:02:21;94936.63;;;9.12;58.44
77871;BME280;67067;46.850;7.578;2023-05-16T02:03:24;94938.22;;;9.13;58.04
77871;BME280;67067;46.850;7.578;2023-05-16T02:04:29;94945.09;;;9.14;58.34
77871;BME280;67067;46.850;7.578;2023-05-16T02:05:31;94937.44;;;9.12;58.10
77871;BME280;67067;46.850;7.578;2023-05-16T02:06:32;94942.72;;;9.12;58.33
77871;BME280;67067;46.850;7.578;2023-05-16T02:07:34;94939.31;;;9.17;58.04
77871;BME280;67067;46.850;7.578;2023-05-16T02:08:36;94933.88;;;9.01;58.35
77871;BME280;67067;46.850;7.578;2023-05-16T02:09:37;94938.16;;;9.07;58.02
77871;BME280;67067;46.850;7.578;2023-05-16T02:10:41;94944.31;;;9.13;58.27
77871;BME280;67067;46.850;7.578;2023-05-16T02:11:43;94938.63;;;8.99;58.60
77871;BME280;67067;46.850;7.578;2023-05-16T02:12:45;94932.16;;;9.12;58.25
77871;BME280;67067;46.850;7.578;2023-05-16T02:13:46;94939.81;;;9.14;58.37
77871;BME280;67067;46.850;7.578;2023-05-16T02:14:50;94936.94;;;9.15;58.27
77871;BME280;67067;46.850;7.578;2023-05-16T02:15:52;94939.03;;;9.13;58.36
77871;BME280;67067;46.850;7.578;2023-05-16T02:16:59;94937.16;;;9.14;58.27
77871;BME280;67067;46.850;7.578;2023-05-16T02:18:01;94943.00;;;9.16;58.16
77871;BME280;67067;46.850;7.578;2023-05-16T02:19:06;94939.81;;;9.14;58.44
77871;BME280;67067;46.850;7.578;2023-05-16T02:20:08;94943.75;;;9.11;58.35
77871;BME280;67067;46.850;7.578;2023-05-16T02:21:10;94937.66;;;9.11;58.10
77871;BME280;67067;46.850;7.578;2023-05-16T02:22:12;94940.66;;;8.92;58.56
77871;BME280;67067;46.850;7.578;2023-05-16T02:23:13;94934.97;;;9.05;58.24
77871;BME280;67067;46.850;7.578;2023-05-16T02:24:15;94936.41;;;8.91;58.57
77871;BME280;67067;46.850;7.578;2023-05-16T02:25:19;94938.91;;;9.03;58.55
77871;BME280;67067;46.850;7.578;2023-05-16T02:26:21;94940.25;;;9.05;58.43
77871;BME280;67067;46.850;7.578;2023-05-16T02:27:25;94933.97;;;9.12;58.36
77871;BME280;67067;46.850;7.578;2023-05-16T02:28:26;94935.44;;;8.97;58.43
77871;BME280;67067;46.850;7.578;2023-05-16T02:29:28;94935.22;;;9.04;58.46
77871;BME280;67067;46.850;7.578;2023-05-16T02:30:30;94931.25;;;9.01;58.79
77871;BME280;67067;46.850;7.578;2023-05-16T02:31:32;94935.22;;;9.04;58.67
77871;BME280;67067;46.850;7.578;2023-05-16T02:32:38;94936.56;;;9.06;58.62
77871;BME280;67067;46.850;7.578;2023-05-16T02:33:41;94932.06;;;9.07;58.79
77871;BME280;67067;46.850;7.578;2023-05-16T02:34:43;94932.88;;;9.07;58.63
77871;BME280;67067;46.850;7.578;2023-05-16T02:35:47;94930.25;;;9.07;58.91
77871;BME280;67067;46.850;7.578;2023-05-16T02:36:51;94925.97;;;9.01;58.65
77871;BME280;67067;46.850;7.578;2023-05-16T02:37:56;94928.84;;;9.00;58.76
77871;BME280;67067;46.850;7.578;2023-05-16T02:38:58;94927.84;;;9.06;58.54
77871;BME280;67067;46.850;7.578;2023-05-16T02:39:59;94930.81;;;8.87;59.22
77871;BME280;67067;46.850;7.578;2023-05-16T02:41:01;94924.06;;;8.97;58.78
77871;BME280;67067;46.850;7.578;2023-05-16T02:42:04;94924.09;;;9.02;58.87
77871;BME280;67067;46.850;7.578;2023-05-16T02:43:05;94929.16;;;9.03;58.73
77871;BME280;67067;46.850;7.578;2023-05-16T02:44:09;94927.00;;;9.00;58.77
77871;BME280;67067;46.850;7.578;2023-05-16T02:45:11;94923.31;;;9.01;58.82
77871;BME280;67067;46.850;7.578;2023-05-16T02:47:23;94923.88;;;9.03;58.73
77871;BME280;67067;46.850;7.578;2023-05-16T02:48:27;94920.69;;;9.01;59.13
77871;BME280;67067;46.850;7.578;2023-05-16T02:49:31;94919.00;;;8.90;59.26
77871;BME280;67067;46.850;7.578;2023-05-16T02:50:34;94909.31;;;9.01;58.79
77871;BME280;67067;46.850;7.578;2023-05-16T02:51:38;94913.81;;;9.00;59.03
77871;BME280;67067;46.850;7.578;2023-05-16T02:52:43;94918.59;;;9.03;58.86
77871;BME280;67067;46.850;7.578;2023-05-16T02:53:48;94912.22;;;8.99;59.04
77871;BME280;67067;46.850;7.578;2023-05-16T02:54:49;94917.50;;;8.99;59.07
77871;BME280;67067;46.850;7.578;2023-05-16T02:56:11;94909.53;;;8.94;59.13
77871;BME280;67067;46.850;7.578;2023-05-16T02:57:17;94915.84;;;8.93;59.25
77871;BME280;67067;46.850;7.578;2023-05-16T02:58:19;94914.25;;;8.92;58.91
77871;BME280;67067;46.850;7.578;2023-05-16T02:59:21;94916.09;;;8.91;59.12
77871;BME280;67067;46.850;7.578;2023-05-16T03:00:22;94917.78;;;8.75;59.27
77871;BME280;67067;46.850;7.578;2023-05-16T03:01:24;94911.31;;;8.88;59.16
77871;BME280;67067;46.850;7.578;2023-05-16T03:02:25;94912.97;;;8.72;59.40
77871;BME280;67067;46.850;7.578;2023-05-16T03:03:28;94909.44;;;8.84;59.04
77871;BME280;67067;46.850;7.578;2023-05-16T03:04:30;94911.81;;;8.85;58.98
77871;BME280;67067;46.850;7.578;2023-05-16T03:05:32;94908.63;;;8.83;58.99
77871;BME280;67067;46.850;7.578;2023-05-16T03:06:33;94913.09;;;8.83;59.19
77871;BME280;67067;46.850;7.578;2023-05-16T03:07:36;94912.06;;;8.84;59.06
77871;BME280;67067;46.850;7.578;2023-05-16T03:08:39;94911.50;;;8.82;59.19
77871;BME280;67067;46.850;7.578;2023-05-16T03:09:43;94916.53;;;8.83;58.92
77871;BME280;67067;46.850;7.578;2023-05-16T03:10:46;94907.34;;;8.86;58.96
77871;BME280;67067;46.850;7.578;2023-05-16T03:11:48;94905.63;;;8.74;59.18
77871;BME280;67067;46.850;7.578;2023-05-16T03:12:53;94903.66;;;8.87;58.82
77871;BME280;67067;46.850;7.578;2023-05-16T03:13:57;94905.28;;;8.93;58.90
77871;BME280;67067;46.850;7.578;2023-05-16T03:15:02;94914.31;;;8.97;58.79
77871;BME280;67067;46.850;7.578;2023-05-16T03:16:05;94902.44;;;9.00;58.58
77871;BME280;67067;46.850;7.578;2023-05-16T03:17:06;94901.16;;;9.02;58.80
77871;BME280;67067;46.850;7.578;2023-05-16T03:18:08;94908.81;;;9.04;58.68
77871;BME280;67067;46.850;7.578;2023-05-16T03:19:12;94905.94;;;9.05;58.44
77871;BME280;67067;46.850;7.578;2023-05-16T03:20:14;94904.34;;;9.04;58.36
77871;BME280;67067;46.850;7.578;2023-05-16T03:21:16;94912.81;;;9.06;58.50
77871;BME280;67067;46.850;7.578;2023-05-16T03:22:18;94903.31;;;9.05;58.48
77871;BME280;67067;46.850;7.578;2023-05-16T03:23:22;94905.94;;;9.05;58.59
77871;BME280;67067;46.850;7.578;2023-05-16T03:24:24;94903.19;;;8.95;58.60
77871;BME280;67067;46.850;7.578;2023-05-16T03:25:26;94901.44;;;9.06;58.49
77871;BME280;67067;46.850;7.578;2023-05-16T03:26:28;94903.03;;;9.07;58.24
77871;BME280;67067;46.850;7.578;2023-05-16T03:27:29;94904.34;;;9.04;58.42
77871;BME280;67067;46.850;7.578;2023-05-16T03:28:31;94898.97;;;8.94;58.60
77871;BME280;67067;46.850;7.578;2023-05-16T03:29:35;94899.84;;;9.05;58.51
77871;BME280;67067;46.850;7.578;2023-05-16T03:30:37;94895.38;;;9.05;58.32
77871;BME280;67067;46.850;7.578;2023-05-16T03:31:38;94895.38;;;9.05;58.27
77871;BME280;67067;46.850;7.578;2023-05-16T03:32:44;94896.97;;;9.06;58.36
77871;BME280;67067;46.850;7.578;2023-05-16T03:33:48;94894.34;;;9.06;58.26
77871;BME280;67067;46.850;7.578;2023-05-16T03:34:50;94895.13;;;9.07;58.27
77871;BME280;67067;46.850;7.578;2023-05-16T03:35:52;94895.28;;;8.95;58.52
77871;BME280;67067;46.850;7.578;2023-05-16T03:36:53;94893.78;;;9.04;58.52
77871;BME280;67067;46.850;7.578;2023-05-16T03:37:55;94894.88;;;9.08;58.54
77871;BME280;67067;46.850;7.578;2023-05-16T03:38:57;94884.47;;;8.97;58.53
77871;BME280;67067;46.850;7.578;2023-05-16T03:39:59;94889.06;;;9.06;58.44
77871;BME280;67067;46.850;7.578;2023-05-16T03:41:01;94890.16;;;9.11;58.33
77871;BME280;67067;46.850;7.578;2023-05-16T03:42:06;94887.50;;;9.11;58.45
77871;BME280;67067;46.850;7.578;2023-05-16T03:43:08;94883.28;;;9.10;58.39
77871;BME280;67067;46.850;7.578;2023-05-16T03:44:12;94880.63;;;9.10;58.37
77871;BME280;67067;46.850;7.578;2023-05-16T03:45:14;94882.22;;;9.11;58.52
77871;BME280;67067;46.850;7.578;2023-05-16T03:46:16;94883.81;;;9.12;58.39
77871;BME280;67067;46.850;7.578;2023-05-16T03:47:17;94891.06;;;8.94;58.75
77871;BME280;67067;46.850;7.578;2023-05-16T03:48:19;94884.00;;;9.05;58.42
77871;BME280;67067;46.850;7.578;2023-05-16T03:49:23;94884.72;;;8.95;58.68
77871;BME280;67067;46.850;7.578;2023-05-16T03:50:25;94895.94;;;9.07;58.44
77871;BME280;67067;46.850;7.578;2023-05-16T03:51:27;94887.00;;;9.14;58.17
77871;BME280;67067;46.850;7.578;2023-05-16T03:52:28;94885.41;;;9.13;58.01
77871;BME280;67067;46.850;7.578;2023-05-16T03:53:30;94886.31;;;8.96;58.32
77871;BME280;67067;46.850;7.578;2023-05-16T03:54:34;94890.09;;;9.05;58.17
77871;BME280;67067;46.850;7.578;2023-05-16T03:55:36;94892.75;;;9.05;58.19
77871;BME280;67067;46.850;7.578;2023-05-16T03:56:37;94896.47;;;9.10;58.15
77871;BME280;67067;46.850;7.578;2023-05-16T03:57:39;94895.94;;;9.07;58.09
77871;BME280;67067;46.850;7.578;2023-05-16T03:58:42;94899.94;;;9.10;58.19
77871;BME280;67067;46.850;7.578;2023-05-16T03:59:44;94903.34;;;9.11;58.08
77871;BME280;67067;46.850;7.578;2023-05-16T04:00:46;94902.31;;;9.12;58.12
77871;BME280;67067;46.850;7.578;2023-05-16T04:01:48;94893.97;;;8.98;58.41
77871;BME280;67067;46.850;7.578;2023-05-16T04:02:53;94898.06;;;9.11;58.18
77871;BME280;67067;46.850;7.578;2023-05-16T04:03:55;94906.53;;;9.13;57.98
77871;BME280;67067;46.850;7.578;2023-05-16T04:04:57;94898.38;;;9.14;58.23
77871;BME280;67067;46.850;7.578;2023-05-16T04:05:58;94902.44;;;9.00;58.58
77871;BME280;67067;46.850;7.578;2023-05-16T04:07:01;94905.75;;;9.12;58.50
77871;BME280;67067;46.850;7.578;2023-05-16T04:08:03;94907.06;;;9.15;58.27
77871;BME280;67067;46.850;7.578;2023-05-16T04:09:07;94903.66;;;9.14;58.25
77871;BME280;67067;46.850;7.578;2023-05-16T04:10:13;94907.34;;;9.13;58.36
77871;BME280;67067;46.850;7.578;2023-05-16T04:11:15;94905.47;;;9.14;58.33
77871;BME280;67067;46.850;7.578;2023-05-16T04:12:17;94906.13;;;8.99;58.71
77871;BME280;67067;46.850;7.578;2023-05-16T04:13:18;94909.44;;;9.11;58.21
77871;BME280;67067;46.850;7.578;2023-05-16T04:14:24;94913.41;;;9.14;58.20
77871;BME280;67067;46.850;7.578;2023-05-16T04:15:26;94904.44;;;9.15;58.22
77871;BME280;67067;46.850;7.578;2023-05-16T04:16:28;94910.53;;;9.15;58.27
77871;BME280;67067;46.850;7.578;2023-05-16T04:17:30;94903.25;;;9.00;58.43
77871;BME280;67067;46.850;7.578;2023-05-16T04:18:32;94906.78;;;9.11;58.28
77871;BME280;67067;46.850;7.578;2023-05-16T04:19:33;94902.69;;;8.98;58.48
77871;BME280;67067;46.850;7.578;2023-05-16T04:20:35;94900.69;;;9.11;58.32
77871;BME280;67067;46.850;7.578;2023-05-16T04:21:39;94904.16;;;9.11;58.22
77871;BME280;67067;46.850;7.578;2023-05-16T04:22:40;94902.84;;;9.14;58.09
77871;BME280;67067;46.850;7.578;2023-05-16T04:23:44;94907.06;;;9.15;57.96
77871;BME280;67067;46.850;7.578;2023-05-16T04:24:46;94905.47;;;9.14;57.98
77871;BME280;67067;46.850;7.578;2023-05-16T04:25:53;94903.66;;;9.14;58.01
77871;BME280;67067;46.850;7.578;2023-05-16T04:26:59;94903.16;;;9.17;58.13
77871;BME280;67067;46.850;7.578;2023-05-16T04:28:01;94911.84;;;9.18;57.84
77871;BME280;67067;46.850;7.578;2023-05-16T04:29:05;94909.22;;;9.18;57.79
77871;BME280;67067;46.850;7.578;2023-05-16T04:30:13;94913.41;;;9.14;58.11
77871;BME280;67067;46.850;7.578;2023-05-16T04:32:15;94904.38;;;9.10;58.19
77871;BME280;67067;46.850;7.578;2023-05-16T04:33:21;94907.03;;;9.10;58.39
77871;BME280;67067;46.850;7.578;2023-05-16T04:34:26;94907.63;;;9.17;58.15
77871;BME280;67067;46.850;7.578;2023-05-16T04:35:28;94897.59;;;9.19;58.26
77871;BME280;67067;46.850;7.578;2023-05-16T04:36:30;94896.56;;;9.20;58.16
77871;BME280;67067;46.850;7.578;2023-05-16T04:37:32;94899.75;;;9.22;58.07
77871;BME280;67067;46.850;7.578;2023-05-16T04:38:33;94900.00;;;9.20;58.03
77871;BME280;67067;46.850;7.578;2023-05-16T04:39:35;94902.81;;;9.08;58.34
77871;BME280;67067;46.850;7.578;2023-05-16T04:40:37;94898.97;;;9.21;58.18
77871;BME280;67067;46.850;7.578;2023-05-16T04:41:39;94900.84;;;9.26;58.08
77871;BME280;67067;46.850;7.578;2023-05-16T04:42:40;94902.69;;;9.26;58.25
77871;BME280;67067;46.850;7.578;2023-05-16T04:43:43;94902.34;;;9.17;58.40
77871;BME280;67067;46.850;7.578;2023-05-16T04:44:44;94904.03;;;9.28;57.93
77871;BME280;67067;46.850;7.578;2023-05-16T04:45:48;94894.81;;;9.31;57.88
77871;BME280;67067;46.850;7.578;2023-05-16T04:46:49;94908.97;;;9.19;58.27
77871;BME280;67067;46.850;7.578;2023-05-16T04:47:51;94902.75;;;9.31;57.80
77871;BME280;67067;46.850;7.578;2023-05-16T04:48:53;94906.72;;;9.33;58.01
77871;BME280;67067;46.850;7.578;2023-05-16T04:49:55;94903.03;;;9.34;57.89
77871;BME280;67067;46.850;7.578;2023-05-16T04:50:59;94912.00;;;9.33;57.92
77871;BME280;67067;46.850;7.578;2023-05-16T04:52:00;94916.09;;;9.19;58.05
77871;BME280;67067;46.850;7.578;2023-05-16T04:53:02;94911.72;;;9.30;58.11
77871;BME280;67067;46.850;7.578;2023-05-16T04:54:06;94904.59;;;9.35;58.03
77871;BME280;67067;46.850;7.578;2023-05-16T04:55:09;94912.06;;;9.39;57.91
77871;BME280;67067;46.850;7.578;2023-05-16T04:56:11;94908.63;;;9.38;57.90
77871;BME280;67067;46.850;7.578;2023-05-16T04:57:13;94918.53;;;9.26;58.20
77871;BME280;67067;46.850;7.578;2023-05-16T04:58:14;94914.47;;;9.40;57.84
77871;BME280;67067;46.850;7.578;2023-05-16T04:59:18;94913.66;;;9.40;57.93
77871;BME280;67067;46.850;7.578;2023-05-16T05:00:20;94916.59;;;9.43;57.72
77871;BME280;67067;46.850;7.578;2023-05-16T05:01:22;94915.81;;;9.43;57.80
77871;BME280;67067;46.850;7.578;2023-05-16T05:02:23;94912.66;;;9.46;57.64
77871;BME280;67067;46.850;7.578;2023-05-16T05:03:25;94917.28;;;9.33;57.99
77871;BME280;67067;46.850;7.578;2023-05-16T05:04:27;94917.69;;;9.47;57.84
77871;BME280;67067;46.850;7.578;2023-05-16T05:05:28;94915.44;;;9.34;57.96
77871;BME280;67067;46.850;7.578;2023-05-16T05:06:30;94921.66;;;9.45;57.65
77871;BME280;67067;46.850;7.578;2023-05-16T05:07:32;94913.22;;;9.48;57.75
77871;BME280;67067;46.850;7.578;2023-05-16T05:08:34;94917.69;;;9.47;57.82
77871;BME280;67067;46.850;7.578;2023-05-16T05:09:36;94906.19;;;9.36;57.96
77871;BME280;67067;46.850;7.578;2023-05-16T05:10:37;94911.13;;;9.50;57.96
77871;BME280;67067;46.850;7.578;2023-05-16T05:11:39;94914.81;;;9.49;57.96
77871;BME280;67067;46.850;7.578;2023-05-16T05:12:43;94908.47;;;9.50;57.81
77871;BME280;67067;46.850;7.578;2023-05-16T05:13:47;94913.22;;;9.48;58.02
77871;BME280;67067;46.850;7.578;2023-05-16T05:14:52;94906.88;;;9.49;57.87
77871;BME280;67067;46.850;7.578;2023-05-16T05:15:54;94914.28;;;9.47;57.68
77871;BME280;67067;46.850;7.578;2023-05-16T05:16:55;94908.72;;;9.48;57.83
77871;BME280;67067;46.850;7.578;2023-05-16T05:17:57;94916.91;;;9.47;58.04
77871;BME280;67067;46.850;7.578;2023-05-16T05:18:59;94912.88;;;9.39;57.93
77871;BME280;67067;46.850;7.578;2023-05-16T05:20:01;94921.03;;;9.37;57.84
77871;BME280;67067;46.850;7.578;2023-05-16T05:21:09;94918.88;;;9.34;57.93
77871;BME280;67067;46.850;7.578;2023-05-16T05:22:14;94926.50;;;9.31;58.16
77871;BME280;67067;46.850;7.578;2023-05-16T05:23:16;94923.88;;;9.31;58.17
77871;BME280;67067;46.850;7.578;2023-05-16T05:24:23;94927.28;;;9.31;58.22
77871;BME280;67067;46.850;7.578;2023-05-16T05:25:27;94919.38;;;9.31;58.19
77871;BME280;67067;46.850;7.578;2023-05-16T05:26:29;94919.88;;;9.28;58.18
77871;BME280;67067;46.850;7.578;2023-05-16T05:27:30;94919.38;;;9.31;58.36
77871;BME280;67067;46.850;7.578;2023-05-16T05:28:32;94924.66;;;9.31;58.45
77871;BME280;67067;46.850;7.578;2023-05-16T05:29:34;94919.91;;;9.33;58.37
77871;BME280;67067;46.850;7.578;2023-05-16T05:30:35;94923.00;;;9.25;58.55
77871;BME280;67067;46.850;7.578;2023-05-16T05:31:37;94922.63;;;9.39;58.25
77871;BME280;67067;46.850;7.578;2023-05-16T05:32:39;94915.91;;;9.26;58.49
77871;BME280;67067;46.850;7.578;2023-05-16T05:33:43;94909.41;;;9.39;58.12
77871;BME280;67067;46.850;7.578;2023-05-16T05:34:46;94915.28;;;9.41;58.10
77871;BME280;67067;46.850;7.578;2023-05-16T05:35:48;94922.50;;;9.28;58.30
77871;BME280;67067;46.850;7.578;2023-05-16T05:36:50;94927.06;;;9.33;58.09
77871;BME280;67067;46.850;7.578;2023-05-16T05:37:54;94916.22;;;9.34;58.32
77871;BME280;67067;46.850;7.578;2023-05-16T05:38:56;94915.19;;;9.35;57.88
77871;BME280;67067;46.850;7.578;2023-05-16T05:40:00;94922.00;;;9.31;57.97
77871;BME280;67067;46.850;7.578;2023-05-16T05:41:01;94921.41;;;9.24;58.25
77871;BME280;67067;46.850;7.578;2023-05-16T05:42:03;94922.06;;;9.36;58.26
77871;BME280;67067;46.850;7.578;2023-05-16T05:43:05;94917.97;;;9.46;58.00
77871;BME280;67067;46.850;7.578;2023-05-16T05:44:06;94920.59;;;9.46;57.95
77871;BME280;67067;46.850;7.578;2023-05-16T05:45:08;94923.66;;;9.37;58.20
77871;BME280;67067;46.850;7.578;2023-05-16T05:46:13;94919.00;;;9.45;57.89
77871;BME280;67067;46.850;7.578;2023-05-16T05:47:15;94908.44;;;9.45;57.80
77871;BME280;67067;46.850;7.578;2023-05-16T05:48:19;94910.81;;;9.46;57.68
77871;BME280;67067;46.850;7.578;2023-05-16T05:49:25;94917.97;;;9.46;57.49
77871;BME280;67067;46.850;7.578;2023-05-16T05:50:26;94912.41;;;9.47;57.30
77871;BME280;67067;46.850;7.578;2023-05-16T05:51:28;94912.53;;;9.35;57.81
77871;BME280;67067;46.850;7.578;2023-05-16T05:52:30;94916.38;;;9.45;57.80